Aérodrome :
LOGIN :

S'inscrire | Disclaimer

   EN    FR    IT 

 










Légende :    VFR   VFR Marginal   IFR   IFR Intensif   IFR Très Intensif
Visi : 
Plafond : 
>= 8 km
>= 3000ft
5 à 8 km
1000 à 3000 ft
1500m à 5 km
500 à 1000 ft
800 à 1500m
200 à 500 ft
< 800m
< 200 ft
Symboles :   Orages  Brouillard  Fortes neiges  Fortes précipitations  Vent > 20 kt
SIGMETs :   Divers  Orages  Givrage  Turbulence  Onde Orograph.  Cendres Volcan.







- Altitude de l'aérodrome : 1247 ft
- Code IATA : PRG


LKPR - Praha Ruzyne

DERNIER METAR :
  • 221330Z 30013KT 9000 -RA FEW012 BKN017 OVC026 12/10 Q1014 BECMG BKN023

METARs EXPIRÉS :
  • 221300Z 30012KT 9000 -RA FEW015 BKN017 OVC023 12/10 Q1013 BECMG BKN023
  • 221230Z 30012KT 7000 -RA FEW013 BKN016 OVC024 12/11 Q1013 BECMG BKN024
  • 221215Z 30013KT 5000 -RA BR BKN009 BKN012 OVC017 12/10 Q1013 RMK REG QNH 1004
  • 221200Z 32014KT 4000 -RA BR SCT009 OVC017 12/10 Q1013 TEMPO BKN009
  • 221130Z 31015KT 9000 -RA OVC016 12/10 Q1013 NOSIG
  • 221100Z 31014KT 9999 -RA BKN017 13/09 Q1013 NOSIG

TAF TAF LKPR
Valide du 22 à 12h jusqu'au 23 à 18h UTC


221100Z 2212/2318 29014KT 9999 BKN022
TEMPO 2212/2221 32016G30KT 6000 SHRA SCT014 BKN017TCU
BECMG 2300/2303 28010KT SCT045
TEMPO 2308/2316 34012G22KT
Pas de NOTAMs connus pour ce terrain.



MET'MAP, la Météo Aéronautique d'un coup d'oeil ! - Copyright ORBIFLY Décembre 2007 - Disclaimer

ORBIFLY MET'MAP TEAM :

Programmation & Développement : Alexandra Zaïnal
Conception & Développement : Baudouin d'Aumeries
Co-Programmation & Développement : Marc-Olivier Méhu
Soutien technique & logistique : Manuel Goepfert

Contact : metmap@orbifly.com




SOURCES & CREDITS :

   NOAA